sensor_id;sensor_type;location;lat;lon;timestamp;temperature;humidity
39277;DHT22;24981;48.086;-1.686;2022-08-21T05:01:59;15.10;99.90
39277;DHT22;24981;48.086;-1.686;2022-08-21T05:04:29;15.20;99.90
39277;DHT22;24981;48.086;-1.686;2022-08-21T05:06:58;15.10;99.90
39277;DHT22;24981;48.086;-1.686;2022-08-21T05:09:27;15.20;99.90
39277;DHT22;24981;48.086;-1.686;2022-08-21T05:11:56;15.10;99.90
39277;DHT22;24981;48.086;-1.686;2022-08-21T05:14:23;15.10;99.90
39277;DHT22;24981;48.086;-1.686;2022-08-21T05:16:52;15.10;99.90
39277;DHT22;24981;48.086;-1.686;2022-08-21T05:19:21;15.10;99.90
39277;DHT22;24981;48.086;-1.686;2022-08-21T05:21:48;15.10;99.90
39277;DHT22;24981;48.086;-1.686;2022-08-21T05:24:16;15.20;99.90
39277;DHT22;24981;48.086;-1.686;2022-08-21T05:26:43;15.20;99.90
39277;DHT22;24981;48.086;-1.686;2022-08-21T05:29:11;15.20;99.90
39277;DHT22;24981;48.086;-1.686;2022-08-21T05:31:38;15.20;99.90
39277;DHT22;24981;48.086;-1.686;2022-08-21T05:34:05;15.30;99.90
39277;DHT22;24981;48.086;-1.686;2022-08-21T05:36:34;15.30;99.90
39277;DHT22;24981;48.086;-1.686;2022-08-21T05:39:01;15.20;99.90
39277;DHT22;24981;48.086;-1.686;2022-08-21T05:41:28;15.20;99.90
39277;DHT22;24981;48.086;-1.686;2022-08-21T05:43:54;15.20;99.90
39277;DHT22;24981;48.086;-1.686;2022-08-21T05:46:21;15.20;99.90
39277;DHT22;24981;48.086;-1.686;2022-08-21T05:48:48;15.30;99.90
39277;DHT22;24981;48.086;-1.686;2022-08-21T05:51:16;15.20;99.90
39277;DHT22;24981;48.086;-1.686;2022-08-21T05:53:44;15.30;99.90
39277;DHT22;24981;48.086;-1.686;2022-08-21T05:56:12;15.20;99.90
39277;DHT22;24981;48.086;-1.686;2022-08-21T05:58:39;15.30;99.90
39277;DHT22;24981;48.086;-1.686;2022-08-21T06:01:06;15.30;99.90
39277;DHT22;24981;48.086;-1.686;2022-08-21T06:03:36;15.40;99.90
39277;DHT22;24981;48.086;-1.686;2022-08-21T06:06:04;15.40;99.90
39277;DHT22;24981;48.086;-1.686;2022-08-21T06:08:31;15.40;99.90
39277;DHT22;24981;48.086;-1.686;2022-08-21T06:11:01;15.30;99.90
39277;DHT22;24981;48.086;-1.686;2022-08-21T06:13:28;15.40;99.90
39277;DHT22;24981;48.086;-1.686;2022-08-21T06:16:07;15.30;99.90
39277;DHT22;24981;48.086;-1.686;2022-08-21T06:18:35;15.30;99.90
39277;DHT22;24981;48.086;-1.686;2022-08-21T06:21:03;15.40;99.90
39277;DHT22;24981;48.086;-1.686;2022-08-21T06:23:30;15.40;99.90
39277;DHT22;24981;48.086;-1.686;2022-08-21T06:25:59;15.40;99.90
39277;DHT22;24981;48.086;-1.686;2022-08-21T06:28:26;15.40;99.90
39277;DHT22;24981;48.086;-1.686;2022-08-21T06:30:53;15.50;99.90
39277;DHT22;24981;48.086;-1.686;2022-08-21T06:33:20;15.60;99.90
39277;DHT22;24981;48.086;-1.686;2022-08-21T06:35:47;15.60;99.90
39277;DHT22;24981;48.086;-1.686;2022-08-21T06:38:14;15.70;99.90
39277;DHT22;24981;48.086;-1.686;2022-08-21T06:40:41;15.70;99.90
39277;DHT22;24981;48.086;-1.686;2022-08-21T06:43:12;15.80;99.90
39277;DHT22;24981;48.086;-1.686;2022-08-21T06:45:40;15.70;99.90
39277;DHT22;24981;48.086;-1.686;2022-08-21T06:48:07;15.80;99.90
39277;DHT22;24981;48.086;-1.686;2022-08-21T06:50:34;15.90;99.90
39277;DHT22;24981;48.086;-1.686;2022-08-21T06:53:03;16.10;99.90
39277;DHT22;24981;48.086;-1.686;2022-08-21T06:55:31;16.10;99.90
39277;DHT22;24981;48.086;-1.686;2022-08-21T06:57:58;16.20;99.90
39277;DHT22;24981;48.086;-1.686;2022-08-21T07:00:27;16.30;99.90
39277;DHT22;24981;48.086;-1.686;2022-08-21T07:02:54;16.40;99.90
39277;DHT22;24981;48.086;-1.686;2022-08-21T07:05:21;16.40;99.90
39277;DHT22;24981;48.086;-1.686;2022-08-21T07:07:48;16.60;99.90
39277;DHT22;24981;48.086;-1.686;2022-08-21T07:10:15;16.70;99.90
39277;DHT22;24981;48.086;-1.686;2022-08-21T07:12:43;16.80;99.90
39277;DHT22;24981;48.086;-1.686;2022-08-21T07:15:10;17.00;99.90
39277;DHT22;24981;48.086;-1.686;2022-08-21T07:17:39;17.10;99.90
39277;DHT22;24981;48.086;-1.686;2022-08-21T07:20:06;17.20;99.90
39277;DHT22;24981;48.086;-1.686;2022-08-21T07:22:35;17.30;99.90
39277;DHT22;24981;48.086;-1.686;2022-08-21T07:25:03;17.30;99.90
39277;DHT22;24981;48.086;-1.686;2022-08-21T07:27:30;17.30;99.90
39277;DHT22;24981;48.086;-1.686;2022-08-21T07:29:57;17.30;99.90
39277;DHT22;24981;48.086;-1.686;2022-08-21T07:32:25;17.20;99.90
39277;DHT22;24981;48.086;-1.686;2022-08-21T07:34:53;17.30;99.90
39277;DHT22;24981;48.086;-1.686;2022-08-21T07:37:20;17.50;99.90
39277;DHT22;24981;48.086;-1.686;2022-08-21T07:39:47;17.50;99.90
39277;DHT22;24981;48.086;-1.686;2022-08-21T07:42:15;17.60;99.90
39277;DHT22;24981;48.086;-1.686;2022-08-21T07:44:42;17.70;99.90
39277;DHT22;24981;48.086;-1.686;2022-08-21T07:47:09;17.90;99.90
39277;DHT22;24981;48.086;-1.686;2022-08-21T07:49:36;18.00;99.90
39277;DHT22;24981;48.086;-1.686;2022-08-21T07:52:05;18.10;99.90
39277;DHT22;24981;48.086;-1.686;2022-08-21T07:54:32;18.20;99.90
39277;DHT22;24981;48.086;-1.686;2022-08-21T07:56:59;18.30;99.90
39277;DHT22;24981;48.086;-1.686;2022-08-21T07:59:26;18.30;99.90
39277;DHT22;24981;48.086;-1.686;2022-08-21T08:01:53;18.30;99.90
39277;DHT22;24981;48.086;-1.686;2022-08-21T08:04:20;18.30;99.90
39277;DHT22;24981;48.086;-1.686;2022-08-21T08:06:46;18.20;99.90
39277;DHT22;24981;48.086;-1.686;2022-08-21T08:09:15;18.00;99.90
39277;DHT22;24981;48.086;-1.686;2022-08-21T08:11:43;18.20;99.90
39277;DHT22;24981;48.086;-1.686;2022-08-21T08:14:11;18.30;99.90
39277;DHT22;24981;48.086;-1.686;2022-08-21T08:16:38;18.40;99.90
39277;DHT22;24981;48.086;-1.686;2022-08-21T08:19:05;18.50;99.90
39277;DHT22;24981;48.086;-1.686;2022-08-21T08:21:32;18.70;99.90
39277;DHT22;24981;48.086;-1.686;2022-08-21T08:23:59;18.80;99.90
39277;DHT22;24981;48.086;-1.686;2022-08-21T08:26:27;19.00;99.90
39277;DHT22;24981;48.086;-1.686;2022-08-21T08:28:54;19.00;99.90
39277;DHT22;24981;48.086;-1.686;2022-08-21T08:31:21;19.10;99.90
39277;DHT22;24981;48.086;-1.686;2022-08-21T08:33:49;19.20;99.90
39277;DHT22;24981;48.086;-1.686;2022-08-21T08:36:17;19.20;99.90
39277;DHT22;24981;48.086;-1.686;2022-08-21T08:38:44;19.30;99.90
39277;DHT22;24981;48.086;-1.686;2022-08-21T08:41:13;19.30;99.90
39277;DHT22;24981;48.086;-1.686;2022-08-21T08:43:47;19.50;99.90
39277;DHT22;24981;48.086;-1.686;2022-08-21T08:46:18;19.50;99.90
39277;DHT22;24981;48.086;-1.686;2022-08-21T08:48:50;19.60;99.90
39277;DHT22;24981;48.086;-1.686;2022-08-21T08:51:21;19.70;99.90
39277;DHT22;24981;48.086;-1.686;2022-08-21T08:53:52;19.80;99.90
39277;DHT22;24981;48.086;-1.686;2022-08-21T08:56:28;19.90;99.90
39277;DHT22;24981;48.086;-1.686;2022-08-21T08:59:00;20.30;99.90
39277;DHT22;24981;48.086;-1.686;2022-08-21T09:01:28;20.60;99.90
39277;DHT22;24981;48.086;-1.686;2022-08-21T09:03:56;20.60;99.90
39277;DHT22;24981;48.086;-1.686;2022-08-21T09:06:37;20.70;99.90
39277;DHT22;24981;48.086;-1.686;2022-08-21T09:09:17;20.80;99.90
39277;DHT22;24981;48.086;-1.686;2022-08-21T09:11:54;20.80;99.90
39277;DHT22;24981;48.086;-1.686;2022-08-21T09:14:33;20.70;99.90
39277;DHT22;24981;48.086;-1.686;2022-08-21T09:17:11;20.90;99.90
39277;DHT22;24981;48.086;-1.686;2022-08-21T09:19:53;21.00;99.90
39277;DHT22;24981;48.086;-1.686;2022-08-21T09:22:28;20.70;99.90
39277;DHT22;24981;48.086;-1.686;2022-08-21T09:25:04;20.90;99.90
39277;DHT22;24981;48.086;-1.686;2022-08-21T09:27:35;21.00;99.90
39277;DHT22;24981;48.086;-1.686;2022-08-21T09:30:07;21.00;99.90
39277;DHT22;24981;48.086;-1.686;2022-08-21T09:32:36;20.90;99.90
39277;DHT22;24981;48.086;-1.686;2022-08-21T09:35:07;20.80;99.90
39277;DHT22;24981;48.086;-1.686;2022-08-21T09:37:44;20.90;99.90
39277;DHT22;24981;48.086;-1.686;2022-08-21T09:40:21;20.90;99.90
39277;DHT22;24981;48.086;-1.686;2022-08-21T09:42:55;21.20;99.90
39277;DHT22;24981;48.086;-1.686;2022-08-21T09:45:24;21.30;99.90
39277;DHT22;24981;48.086;-1.686;2022-08-21T09:47:51;21.40;99.90
39277;DHT22;24981;48.086;-1.686;2022-08-21T09:50:20;21.40;99.90
39277;DHT22;24981;48.086;-1.686;2022-08-21T09:52:50;21.40;99.90
39277;DHT22;24981;48.086;-1.686;2022-08-21T09:55:21;21.70;99.90
39277;DHT22;24981;48.086;-1.686;2022-08-21T09:58:07;21.80;99.90
39277;DHT22;24981;48.086;-1.686;2022-08-21T10:00:36;22.00;99.90
39277;DHT22;24981;48.086;-1.686;2022-08-21T10:03:11;21.90;99.90
39277;DHT22;24981;48.086;-1.686;2022-08-21T10:05:40;21.80;99.90
39277;DHT22;24981;48.086;-1.686;2022-08-21T10:08:17;21.80;99.90
39277;DHT22;24981;48.086;-1.686;2022-08-21T10:10:44;21.90;99.90
39277;DHT22;24981;48.086;-1.686;2022-08-21T10:13:13;22.50;99.90
39277;DHT22;24981;48.086;-1.686;2022-08-21T10:15:59;22.80;99.90
39277;DHT22;24981;48.086;-1.686;2022-08-21T10:18:32;22.70;99.90
39277;DHT22;24981;48.086;-1.686;2022-08-21T10:21:06;22.90;99.90
39277;DHT22;24981;48.086;-1.686;2022-08-21T10:23:46;23.00;99.90
39277;DHT22;24981;48.086;-1.686;2022-08-21T10:26:38;22.80;99.90
39277;DHT22;24981;48.086;-1.686;2022-08-21T10:29:22;22.60;99.90
39277;DHT22;24981;48.086;-1.686;2022-08-21T10:32:01;22.40;99.90
39277;DHT22;24981;48.086;-1.686;2022-08-21T10:34:40;22.40;99.90
39277;DHT22;24981;48.086;-1.686;2022-08-21T10:37:31;22.50;99.90
39277;DHT22;24981;48.086;-1.686;2022-08-21T10:40:12;22.60;99.90
39277;DHT22;24981;48.086;-1.686;2022-08-21T10:42:49;22.70;99.90
39277;DHT22;24981;48.086;-1.686;2022-08-21T10:45:32;22.80;99.90
39277;DHT22;24981;48.086;-1.686;2022-08-21T10:48:04;22.50;99.90
39277;DHT22;24981;48.086;-1.686;2022-08-21T10:50:36;22.40;99.90
39277;DHT22;24981;48.086;-1.686;2022-08-21T10:53:25;22.50;99.90
39277;DHT22;24981;48.086;-1.686;2022-08-21T10:55:56;22.40;99.90
39277;DHT22;24981;48.086;-1.686;2022-08-21T10:58:29;22.50;99.90
39277;DHT22;24981;48.086;-1.686;2022-08-21T11:01:00;22.50;99.90
39277;DHT22;24981;48.086;-1.686;2022-08-21T11:03:35;22.30;99.90
39277;DHT22;24981;48.086;-1.686;2022-08-21T11:06:11;22.30;99.90
39277;DHT22;24981;48.086;-1.686;2022-08-21T11:08:40;22.00;99.90
39277;DHT22;24981;48.086;-1.686;2022-08-21T11:11:11;22.10;99.90
39277;DHT22;24981;48.086;-1.686;2022-08-21T11:13:41;22.10;99.90
39277;DHT22;24981;48.086;-1.686;2022-08-21T11:16:15;22.10;99.90
39277;DHT22;24981;48.086;-1.686;2022-08-21T11:18:47;22.10;99.90
39277;DHT22;24981;48.086;-1.686;2022-08-21T11:21:32;21.90;99.90
39277;DHT22;24981;48.086;-1.686;2022-08-21T11:24:09;21.60;99.90
39277;DHT22;24981;48.086;-1.686;2022-08-21T11:26:43;21.50;99.90
39277;DHT22;24981;48.086;-1.686;2022-08-21T11:29:15;21.50;99.90
39277;DHT22;24981;48.086;-1.686;2022-08-21T11:31:56;21.30;99.90
39277;DHT22;24981;48.086;-1.686;2022-08-21T11:34:41;21.30;99.90
39277;DHT22;24981;48.086;-1.686;2022-08-21T11:37:22;21.40;99.90
39277;DHT22;24981;48.086;-1.686;2022-08-21T11:39:57;21.50;99.90
39277;DHT22;24981;48.086;-1.686;2022-08-21T11:42:32;21.50;99.90
39277;DHT22;24981;48.086;-1.686;2022-08-21T11:45:10;21.50;99.90
39277;DHT22;24981;48.086;-1.686;2022-08-21T11:47:52;21.40;99.90
39277;DHT22;24981;48.086;-1.686;2022-08-21T11:50:24;21.30;99.90
39277;DHT22;24981;48.086;-1.686;2022-08-21T11:52:56;21.40;99.90
39277;DHT22;24981;48.086;-1.686;2022-08-21T11:55:28;21.50;99.90
39277;DHT22;24981;48.086;-1.686;2022-08-21T11:58:01;21.40;99.90
39277;DHT22;24981;48.086;-1.686;2022-08-21T12:00:34;21.20;99.90
39277;DHT22;24981;48.086;-1.686;2022-08-21T12:03:08;21.20;99.90
39277;DHT22;24981;48.086;-1.686;2022-08-21T12:05:39;21.20;99.90
39277;DHT22;24981;48.086;-1.686;2022-08-21T12:08:12;21.10;99.90
39277;DHT22;24981;48.086;-1.686;2022-08-21T12:10:41;21.00;99.90
39277;DHT22;24981;48.086;-1.686;2022-08-21T12:13:11;20.90;99.90
39277;DHT22;24981;48.086;-1.686;2022-08-21T12:15:47;20.90;99.90
39277;DHT22;24981;48.086;-1.686;2022-08-21T12:18:23;20.70;99.90
39277;DHT22;24981;48.086;-1.686;2022-08-21T12:21:03;20.40;99.90
39277;DHT22;24981;48.086;-1.686;2022-08-21T12:23:32;20.40;99.90
39277;DHT22;24981;48.086;-1.686;2022-08-21T12:26:20;20.40;99.90
39277;DHT22;24981;48.086;-1.686;2022-08-21T12:28:49;20.30;99.90
39277;DHT22;24981;48.086;-1.686;2022-08-21T12:31:27;20.20;99.90
39277;DHT22;24981;48.086;-1.686;2022-08-21T12:33:57;20.10;99.90
39277;DHT22;24981;48.086;-1.686;2022-08-21T12:36:37;20.00;99.90
39277;DHT22;24981;48.086;-1.686;2022-08-21T12:39:11;20.30;99.90
39277;DHT22;24981;48.086;-1.686;2022-08-21T12:41:44;20.60;99.90
39277;DHT22;24981;48.086;-1.686;2022-08-21T12:44:14;20.90;99.90
39277;DHT22;24981;48.086;-1.686;2022-08-21T12:46:46;21.20;99.90
39277;DHT22;24981;48.086;-1.686;2022-08-21T12:49:15;21.20;99.90
39277;DHT22;24981;48.086;-1.686;2022-08-21T12:51:51;21.20;99.90
39277;DHT22;24981;48.086;-1.686;2022-08-21T12:54:25;21.10;99.90
39277;DHT22;24981;48.086;-1.686;2022-08-21T12:56:58;21.10;99.90
39277;DHT22;24981;48.086;-1.686;2022-08-21T12:59:25;20.70;99.90
39277;DHT22;24981;48.086;-1.686;2022-08-21T13:01:52;20.90;99.90
39277;DHT22;24981;48.086;-1.686;2022-08-21T13:04:23;20.90;99.90
39277;DHT22;24981;48.086;-1.686;2022-08-21T13:06:58;20.90;99.90
39277;DHT22;24981;48.086;-1.686;2022-08-21T13:09:29;20.90;99.90
39277;DHT22;24981;48.086;-1.686;2022-08-21T13:11:57;20.90;99.90
39277;DHT22;24981;48.086;-1.686;2022-08-21T13:14:29;21.10;99.90
39277;DHT22;24981;48.086;-1.686;2022-08-21T13:16:58;21.10;99.90
39277;DHT22;24981;48.086;-1.686;2022-08-21T13:19:26;21.20;99.90
39277;DHT22;24981;48.086;-1.686;2022-08-21T13:21:56;21.30;99.90
39277;DHT22;24981;48.086;-1.686;2022-08-21T13:24:26;21.30;99.90
39277;DHT22;24981;48.086;-1.686;2022-08-21T13:26:55;21.30;99.90
39277;DHT22;24981;48.086;-1.686;2022-08-21T13:29:27;21.30;99.90
39277;DHT22;24981;48.086;-1.686;2022-08-21T13:31:56;21.30;99.90
39277;DHT22;24981;48.086;-1.686;2022-08-21T13:34:25;21.30;99.90
39277;DHT22;24981;48.086;-1.686;2022-08-21T13:36:57;21.10;99.90
39277;DHT22;24981;48.086;-1.686;2022-08-21T13:39:25;20.70;99.90
39277;DHT22;24981;48.086;-1.686;2022-08-21T13:41:55;20.20;99.90
39277;DHT22;24981;48.086;-1.686;2022-08-21T13:44:32;20.30;99.90
39277;DHT22;24981;48.086;-1.686;2022-08-21T13:47:03;20.30;99.90
39277;DHT22;24981;48.086;-1.686;2022-08-21T13:49:34;20.30;99.90
39277;DHT22;24981;48.086;-1.686;2022-08-21T13:52:04;20.40;99.90
39277;DHT22;24981;48.086;-1.686;2022-08-21T13:54:35;20.20;99.90
39277;DHT22;24981;48.086;-1.686;2022-08-21T13:57:03;20.20;99.90
39277;DHT22;24981;48.086;-1.686;2022-08-21T13:59:32;20.10;99.90
39277;DHT22;24981;48.086;-1.686;2022-08-21T14:02:01;20.10;99.90
39277;DHT22;24981;48.086;-1.686;2022-08-21T14:04:38;20.10;99.90
39277;DHT22;24981;48.086;-1.686;2022-08-21T14:07:17;20.10;99.90
39277;DHT22;24981;48.086;-1.686;2022-08-21T14:09:46;20.10;99.90
39277;DHT22;24981;48.086;-1.686;2022-08-21T14:12:14;20.20;99.90
39277;DHT22;24981;48.086;-1.686;2022-08-21T14:14:43;20.20;99.90
39277;DHT22;24981;48.086;-1.686;2022-08-21T14:17:13;20.00;99.90
39277;DHT22;24981;48.086;-1.686;2022-08-21T14:19:42;20.00;99.90
39277;DHT22;24981;48.086;-1.686;2022-08-21T14:22:32;20.00;99.90
39277;DHT22;24981;48.086;-1.686;2022-08-21T14:25:00;20.10;99.90
39277;DHT22;24981;48.086;-1.686;2022-08-21T14:27:29;19.90;99.90
39277;DHT22;24981;48.086;-1.686;2022-08-21T14:29:59;20.00;99.90
39277;DHT22;24981;48.086;-1.686;2022-08-21T14:32:29;20.00;99.90
39277;DHT22;24981;48.086;-1.686;2022-08-21T14:34:57;20.10;99.90
39277;DHT22;24981;48.086;-1.686;2022-08-21T14:37:25;20.20;99.90
39277;DHT22;24981;48.086;-1.686;2022-08-21T14:39:52;20.20;99.90
39277;DHT22;24981;48.086;-1.686;2022-08-21T14:42:19;20.20;99.90
39277;DHT22;24981;48.086;-1.686;2022-08-21T14:44:47;20.10;99.90
39277;DHT22;24981;48.086;-1.686;2022-08-21T14:47:14;20.00;99.90
39277;DHT22;24981;48.086;-1.686;2022-08-21T14:49:41;19.80;99.90
39277;DHT22;24981;48.086;-1.686;2022-08-21T14:52:08;20.00;99.90
39277;DHT22;24981;48.086;-1.686;2022-08-21T14:54:36;19.90;99.90
39277;DHT22;24981;48.086;-1.686;2022-08-21T14:57:07;19.90;99.90
39277;DHT22;24981;48.086;-1.686;2022-08-21T14:59:35;19.90;99.90
39277;DHT22;24981;48.086;-1.686;2022-08-21T15:02:02;19.70;99.90
39277;DHT22;24981;48.086;-1.686;2022-08-21T15:04:30;19.80;99.90
39277;DHT22;24981;48.086;-1.686;2022-08-21T15:06:57;20.00;99.90
39277;DHT22;24981;48.086;-1.686;2022-08-21T15:09:24;19.90;99.90
39277;DHT22;24981;48.086;-1.686;2022-08-21T15:11:53;20.00;99.90
39277;DHT22;24981;48.086;-1.686;2022-08-21T15:14:24;20.00;99.90
39277;DHT22;24981;48.086;-1.686;2022-08-21T15:16:51;19.90;99.90
39277;DHT22;24981;48.086;-1.686;2022-08-21T15:19:18;19.90;99.90
39277;DHT22;24981;48.086;-1.686;2022-08-21T15:21:46;19.90;99.90
39277;DHT22;24981;48.086;-1.686;2022-08-21T15:24:13;19.70;99.90
39277;DHT22;24981;48.086;-1.686;2022-08-21T15:26:39;19.70;99.90
39277;DHT22;24981;48.086;-1.686;2022-08-21T15:29:08;19.60;99.90
39277;DHT22;24981;48.086;-1.686;2022-08-21T15:31:35;19.70;99.90
39277;DHT22;24981;48.086;-1.686;2022-08-21T15:34:02;19.60;99.90
39277;DHT22;24981;48.086;-1.686;2022-08-21T15:36:29;19.60;99.90
39277;DHT22;24981;48.086;-1.686;2022-08-21T15:38:56;19.60;99.90
39277;DHT22;24981;48.086;-1.686;2022-08-21T15:41:23;19.60;99.90
39277;DHT22;24981;48.086;-1.686;2022-08-21T15:43:51;19.80;99.90
39277;DHT22;24981;48.086;-1.686;2022-08-21T15:46:21;19.70;99.90
39277;DHT22;24981;48.086;-1.686;2022-08-21T15:48:48;19.50;99.90
39277;DHT22;24981;48.086;-1.686;2022-08-21T15:51:16;19.70;99.90
39277;DHT22;24981;48.086;-1.686;2022-08-21T15:53:43;19.60;99.90
39277;DHT22;24981;48.086;-1.686;2022-08-21T15:56:20;19.80;99.90
39277;DHT22;24981;48.086;-1.686;2022-08-21T15:58:48;19.90;99.90
39277;DHT22;24981;48.086;-1.686;2022-08-21T16:01:15;20.00;99.90
39277;DHT22;24981;48.086;-1.686;2022-08-21T16:03:47;20.00;99.90
39277;DHT22;24981;48.086;-1.686;2022-08-21T16:06:15;20.10;99.90
39277;DHT22;24981;48.086;-1.686;2022-08-21T16:08:42;20.00;99.90
39277;DHT22;24981;48.086;-1.686;2022-08-21T16:11:10;20.00;99.90
39277;DHT22;24981;48.086;-1.686;2022-08-21T16:13:39;20.00;99.90
39277;DHT22;24981;48.086;-1.686;2022-08-21T16:16:08;20.10;99.90
39277;DHT22;24981;48.086;-1.686;2022-08-21T16:18:36;20.20;99.90
39277;DHT22;24981;48.086;-1.686;2022-08-21T16:21:04;20.10;99.90
39277;DHT22;24981;48.086;-1.686;2022-08-21T16:23:32;20.10;99.90
39277;DHT22;24981;48.086;-1.686;2022-08-21T16:26:00;20.00;99.90
39277;DHT22;24981;48.086;-1.686;2022-08-21T16:28:29;19.90;99.90
39277;DHT22;24981;48.086;-1.686;2022-08-21T16:30:56;19.60;99.90
39277;DHT22;24981;48.086;-1.686;2022-08-21T16:33:27;19.50;99.90
39277;DHT22;24981;48.086;-1.686;2022-08-21T16:35:56;19.60;99.90
39277;DHT22;24981;48.086;-1.686;2022-08-21T16:38:26;19.40;99.90
39277;DHT22;24981;48.086;-1.686;2022-08-21T16:40:53;19.40;99.90
39277;DHT22;24981;48.086;-1.686;2022-08-21T16:43:24;19.40;99.90
39277;DHT22;24981;48.086;-1.686;2022-08-21T16:45:52;19.40;99.90
39277;DHT22;24981;48.086;-1.686;2022-08-21T16:48:19;19.50;99.90
39277;DHT22;24981;48.086;-1.686;2022-08-21T16:50:46;19.30;99.90
39277;DHT22;24981;48.086;-1.686;2022-08-21T16:53:13;19.30;99.90
39277;DHT22;24981;48.086;-1.686;2022-08-21T16:55:42;19.40;99.90
39277;DHT22;24981;48.086;-1.686;2022-08-21T16:58:12;19.30;99.90
39277;DHT22;24981;48.086;-1.686;2022-08-21T17:00:40;19.40;99.90
39277;DHT22;24981;48.086;-1.686;2022-08-21T17:03:15;19.40;99.90
39277;DHT22;24981;48.086;-1.686;2022-08-21T17:05:43;19.40;99.90
39277;DHT22;24981;48.086;-1.686;2022-08-21T17:08:10;19.40;99.90
39277;DHT22;24981;48.086;-1.686;2022-08-21T17:10:37;19.40;99.90
39277;DHT22;24981;48.086;-1.686;2022-08-21T17:13:06;19.40;99.90
39277;DHT22;24981;48.086;-1.686;2022-08-21T17:15:36;19.40;99.90
39277;DHT22;24981;48.086;-1.686;2022-08-21T17:18:05;19.40;99.90
39277;DHT22;24981;48.086;-1.686;2022-08-21T17:20:33;19.40;99.90
39277;DHT22;24981;48.086;-1.686;2022-08-21T17:23:00;19.50;99.90
39277;DHT22;24981;48.086;-1.686;2022-08-21T17:25:27;19.40;99.90
39277;DHT22;24981;48.086;-1.686;2022-08-21T17:27:54;19.40;99.90
39277;DHT22;24981;48.086;-1.686;2022-08-21T17:30:23;19.40;99.90
39277;DHT22;24981;48.086;-1.686;2022-08-21T17:32:52;19.40;99.90
39277;DHT22;24981;48.086;-1.686;2022-08-21T17:35:20;19.40;99.90
39277;DHT22;24981;48.086;-1.686;2022-08-21T17:37:47;19.30;99.90
39277;DHT22;24981;48.086;-1.686;2022-08-21T17:40:14;19.30;99.90
39277;DHT22;24981;48.086;-1.686;2022-08-21T17:42:43;19.30;99.90
39277;DHT22;24981;48.086;-1.686;2022-08-21T17:45:13;19.30;99.90
39277;DHT22;24981;48.086;-1.686;2022-08-21T17:47:42;19.20;99.90
39277;DHT22;24981;48.086;-1.686;2022-08-21T17:50:12;19.30;99.90
39277;DHT22;24981;48.086;-1.686;2022-08-21T17:52:39;19.30;99.90
39277;DHT22;24981;48.086;-1.686;2022-08-21T17:55:09;19.30;99.90
39277;DHT22;24981;48.086;-1.686;2022-08-21T17:57:36;19.20;99.90
39277;DHT22;24981;48.086;-1.686;2022-08-21T18:00:06;19.10;99.90
39277;DHT22;24981;48.086;-1.686;2022-08-21T18:02:33;19.20;99.90
39277;DHT22;24981;48.086;-1.686;2022-08-21T18:05:02;19.00;99.90
39277;DHT22;24981;48.086;-1.686;2022-08-21T18:07:29;19.00;99.90
39277;DHT22;24981;48.086;-1.686;2022-08-21T18:09:56;19.10;99.90
39277;DHT22;24981;48.086;-1.686;2022-08-21T18:12:23;19.10;99.90
39277;DHT22;24981;48.086;-1.686;2022-08-21T18:14:50;19.10;99.90
39277;DHT22;24981;48.086;-1.686;2022-08-21T18:17:19;19.10;99.90
39277;DHT22;24981;48.086;-1.686;2022-08-21T18:19:48;19.10;99.90
39277;DHT22;24981;48.086;-1.686;2022-08-21T18:22:16;19.10;99.90
39277;DHT22;24981;48.086;-1.686;2022-08-21T18:24:43;19.10;99.90
39277;DHT22;24981;48.086;-1.686;2022-08-21T18:27:11;18.90;99.90
39277;DHT22;24981;48.086;-1.686;2022-08-21T18:29:40;19.00;99.90
39277;DHT22;24981;48.086;-1.686;2022-08-21T18:32:07;19.00;99.90
39277;DHT22;24981;48.086;-1.686;2022-08-21T18:34:38;19.00;99.90
39277;DHT22;24981;48.086;-1.686;2022-08-21T18:37:06;19.00;99.90
39277;DHT22;24981;48.086;-1.686;2022-08-21T18:39:35;19.00;99.90
39277;DHT22;24981;48.086;-1.686;2022-08-21T18:42:06;19.00;99.90
39277;DHT22;24981;48.086;-1.686;2022-08-21T18:44:34;18.90;99.90
39277;DHT22;24981;48.086;-1.686;2022-08-21T18:47:05;18.80;99.90
39277;DHT22;24981;48.086;-1.686;2022-08-21T18:49:32;18.80;99.90
39277;DHT22;24981;48.086;-1.686;2022-08-21T18:51:59;18.80;99.90
39277;DHT22;24981;48.086;-1.686;2022-08-21T18:54:26;18.80;99.90
39277;DHT22;24981;48.086;-1.686;2022-08-21T18:56:55;18.80;99.90
39277;DHT22;24981;48.086;-1.686;2022-08-21T18:59:22;18.80;99.90
39277;DHT22;24981;48.086;-1.686;2022-08-21T19:01:51;18.70;99.90
39277;DHT22;24981;48.086;-1.686;2022-08-21T19:04:18;18.70;99.90
39277;DHT22;24981;48.086;-1.686;2022-08-21T19:06:45;18.70;99.90
39277;DHT22;24981;48.086;-1.686;2022-08-21T19:09:12;18.70;99.90
39277;DHT22;24981;48.086;-1.686;2022-08-21T19:11:40;18.80;99.90
39277;DHT22;24981;48.086;-1.686;2022-08-21T19:14:11;18.70;99.90
39277;DHT22;24981;48.086;-1.686;2022-08-21T19:16:40;18.80;99.90
39277;DHT22;24981;48.086;-1.686;2022-08-21T19:19:09;18.80;99.90
39277;DHT22;24981;48.086;-1.686;2022-08-21T19:21:36;18.70;99.90
39277;DHT22;24981;48.086;-1.686;2022-08-21T19:24:04;18.70;99.90
39277;DHT22;24981;48.086;-1.686;2022-08-21T19:26:31;18.70;99.90
39277;DHT22;24981;48.086;-1.686;2022-08-21T19:29:02;18.70;99.90
39277;DHT22;24981;48.086;-1.686;2022-08-21T19:31:37;18.70;99.90
39277;DHT22;24981;48.086;-1.686;2022-08-21T19:34:07;18.60;99.90
39277;DHT22;24981;48.086;-1.686;2022-08-21T19:36:35;18.60;99.90
39277;DHT22;24981;48.086;-1.686;2022-08-21T19:39:03;18.60;99.90
39277;DHT22;24981;48.086;-1.686;2022-08-21T19:41:31;18.70;99.90
39277;DHT22;24981;48.086;-1.686;2022-08-21T19:44:03;18.60;99.90
39277;DHT22;24981;48.086;-1.686;2022-08-21T19:46:33;18.70;99.90
39277;DHT22;24981;48.086;-1.686;2022-08-21T19:49:02;18.70;99.90
39277;DHT22;24981;48.086;-1.686;2022-08-21T19:51:30;18.70;99.90
39277;DHT22;24981;48.086;-1.686;2022-08-21T19:53:58;18.80;99.90
39277;DHT22;24981;48.086;-1.686;2022-08-21T19:56:29;18.60;99.90
39277;DHT22;24981;48.086;-1.686;2022-08-21T19:58:57;18.60;99.90
39277;DHT22;24981;48.086;-1.686;2022-08-21T20:01:25;18.60;99.90
39277;DHT22;24981;48.086;-1.686;2022-08-21T20:03:54;18.70;99.90
39277;DHT22;24981;48.086;-1.686;2022-08-21T20:06:21;18.70;99.90
39277;DHT22;24981;48.086;-1.686;2022-08-21T20:08:48;18.50;99.90
39277;DHT22;24981;48.086;-1.686;2022-08-21T20:11:21;18.50;99.90
39277;DHT22;24981;48.086;-1.686;2022-08-21T20:13:50;18.60;99.90
39277;DHT22;24981;48.086;-1.686;2022-08-21T20:16:17;18.60;99.90
39277;DHT22;24981;48.086;-1.686;2022-08-21T20:18:46;18.70;99.90
39277;DHT22;24981;48.086;-1.686;2022-08-21T20:21:15;18.70;99.90
39277;DHT22;24981;48.086;-1.686;2022-08-21T20:23:42;18.60;99.90
39277;DHT22;24981;48.086;-1.686;2022-08-21T20:26:09;18.60;99.90
39277;DHT22;24981;48.086;-1.686;2022-08-21T20:28:36;18.60;99.90
39277;DHT22;24981;48.086;-1.686;2022-08-21T20:31:04;18.60;99.90
39277;DHT22;24981;48.086;-1.686;2022-08-21T20:33:31;18.50;99.90